createdAt,value
2023-01-19T00:03:20.534Z,1.4
2023-01-19T00:13:21.002Z,1.5
2023-01-19T00:23:21.681Z,1.4
2023-01-19T00:33:22.320Z,1.6
2023-01-19T00:43:22.449Z,1.5
2023-01-19T00:53:23.452Z,1.7
2023-01-19T01:03:24.389Z,1.7
2023-01-19T01:13:27.213Z,1.7
2023-01-19T01:23:25.572Z,1.9
2023-01-19T01:33:40.305Z,1.8
2023-01-19T01:43:27.199Z,1.9
2023-01-19T01:53:27.494Z,2
2023-01-19T02:03:27.996Z,1.8
2023-01-19T02:13:28.261Z,1.8
2023-01-19T02:23:28.936Z,1.8
2023-01-19T02:33:29.319Z,1.8
2023-01-19T02:43:29.460Z,1.8
2023-01-19T02:53:30.214Z,1.8
2023-01-19T03:03:30.424Z,1.7
2023-01-19T03:13:31.015Z,1.8
2023-01-19T03:23:31.272Z,1.8
2023-01-19T03:33:31.537Z,1.7
2023-01-19T03:43:32.299Z,1.9
2023-01-19T03:53:32.440Z,1.9
2023-01-19T04:03:33.052Z,2
2023-01-19T04:13:33.283Z,2
2023-01-19T04:23:33.322Z,2
2023-01-19T04:23:38.665Z,2
2023-01-19T04:33:39.440Z,1.8
2023-01-19T04:43:39.865Z,1.3
2023-01-19T04:53:40.847Z,0.6
2023-01-19T05:03:41.839Z,0.5
2023-01-19T05:13:42.167Z,0.6
2023-01-19T05:33:42.775Z,0.4
2023-01-19T05:43:43.033Z,0.4
2023-01-19T05:53:43.486Z,0.3
2023-01-19T06:03:44.481Z,0.2
2023-01-19T06:13:45.521Z,0.2
2023-01-19T06:23:46.489Z,0.3
2023-01-19T06:33:47.050Z,0.3
2023-01-19T06:43:47.582Z,0.2
2023-01-19T06:53:47.999Z,0.2
2023-01-19T07:03:48.822Z,0.2
2023-01-19T07:13:49.465Z,0.2
2023-01-19T07:23:49.715Z,0.3
2023-01-19T07:33:50.239Z,0.4
2023-01-19T07:43:50.695Z,0.4
2023-01-19T07:53:51.489Z,0.5
2023-01-19T08:13:53.263Z,0.7
2023-01-19T08:23:53.993Z,0.8
2023-01-19T08:33:54.424Z,0.9
2023-01-19T08:43:54.710Z,0.9
2023-01-19T08:53:54.846Z,1
2023-01-19T09:03:55.227Z,1.1
2023-01-19T09:13:55.295Z,1.1
2023-01-19T09:23:55.826Z,1.2
2023-01-19T09:33:56.522Z,1.3
2023-01-19T09:43:56.832Z,1.3
2023-01-19T09:53:57.749Z,1.3
2023-01-19T10:03:58.614Z,1.4
2023-01-19T10:13:58.801Z,1.4
2023-01-19T10:23:59.428Z,1.4
2023-01-19T10:34:00.171Z,1.5
2023-01-19T10:44:00.822Z,1.5
2023-01-19T10:54:01.902Z,1.6
2023-01-19T11:04:02.612Z,1.5
2023-01-19T11:14:02.715Z,1.6
2023-01-19T11:34:03.853Z,1.8
2023-01-19T11:44:04.076Z,1.9
2023-01-19T11:54:05.091Z,2
2023-01-19T12:04:05.484Z,2
2023-01-19T12:14:05.785Z,2
2023-01-19T12:24:06.578Z,2
2023-01-19T12:34:07.475Z,2
2023-01-19T12:44:08.346Z,2
2023-01-19T12:54:08.451Z,2
2023-01-19T13:04:08.745Z,2.2
2023-01-19T13:14:09.730Z,2.4
2023-01-19T13:24:10.432Z,2.6
2023-01-19T13:34:10.605Z,2.7
2023-01-19T13:44:10.853Z,2.4
2023-01-19T13:54:11.229Z,2.4
2023-01-19T14:04:11.845Z,2.5
2023-01-19T14:14:12.111Z,2.5
2023-01-19T14:24:12.574Z,2.3
2023-01-19T14:34:13.538Z,2.4
2023-01-19T14:44:13.877Z,2.4
2023-01-19T15:04:15.362Z,2.5
2023-01-19T15:14:15.602Z,2.5
2023-01-19T15:54:17.353Z,1.9
2023-01-19T16:04:18.253Z,1.7
2023-01-19T16:14:18.839Z,1.5
2023-01-19T16:24:19.851Z,1.6
2023-01-19T16:34:20.341Z,1.6
2023-01-19T17:04:22.434Z,1.5
2023-01-19T17:14:22.899Z,1.3
2023-01-19T17:34:24.046Z,1.3
2023-01-19T17:44:24.620Z,1.3
2023-01-19T17:54:25.156Z,1.2
2023-01-19T18:04:26.088Z,1.2
2023-01-19T18:14:27.025Z,1.2
2023-01-19T18:54:28.843Z,1.4
2023-01-19T19:04:29.436Z,1.5
2023-01-19T19:14:30.185Z,1.6
2023-01-19T19:24:30.556Z,1.7
2023-01-19T19:34:31.006Z,1.7
2023-01-19T19:44:31.196Z,1.7
2023-01-19T20:04:31.701Z,1.8
2023-01-19T20:24:32.797Z,1.7
2023-01-19T20:54:34.057Z,1.7
2023-01-19T21:14:34.834Z,1.7
2023-01-19T21:24:35.429Z,1.6
2023-01-19T21:44:36.080Z,1.8
2023-01-19T21:54:36.226Z,1.7
2023-01-19T22:04:36.470Z,1.7
2023-01-19T22:14:36.910Z,1.7
2023-01-19T22:24:37.573Z,1.7
2023-01-19T22:34:37.748Z,1.7
2023-01-19T22:44:38.700Z,1.7
2023-01-19T22:54:39.222Z,1.6
2023-01-19T23:04:40.022Z,1.6
2023-01-19T23:14:40.286Z,1.6
2023-01-19T23:24:40.500Z,1.6
2023-01-19T23:34:40.697Z,1.5
2023-01-19T23:44:41.435Z,1.4
2023-01-19T23:54:41.815Z,1.3
